createdAt,value
2022-11-25T00:01:25.775Z,37.85
2022-11-25T00:03:56.342Z,43.97
2022-11-25T00:06:26.505Z,51.78
2022-11-25T00:08:57.451Z,40.22
2022-11-25T00:11:25.495Z,43.78
2022-11-25T00:13:53.466Z,34.05
2022-11-25T00:16:27.394Z,40.30
2022-11-25T00:18:57.106Z,42.17
2022-11-25T00:21:26.664Z,37.47
2022-11-25T00:23:56.581Z,43.22
2022-11-25T00:26:26.398Z,43.60
2022-11-25T00:28:54.942Z,48.13
2022-11-25T00:31:27.838Z,47.22
2022-11-25T00:33:56.493Z,48.22
2022-11-25T00:36:28.303Z,51.90
2022-11-25T00:39:01.017Z,43.42
2022-11-25T00:41:47.360Z,44.50
2022-11-25T00:44:35.097Z,44.38
2022-11-25T00:47:06.233Z,42.85
2022-11-25T00:49:34.591Z,40.00
2022-11-25T00:52:02.573Z,40.20
2022-11-25T00:54:30.578Z,43.78
2022-11-25T00:56:59.385Z,41.95
2022-11-25T00:59:28.681Z,40.05
2022-11-25T01:01:56.920Z,46.05
2022-11-25T01:04:26.442Z,45.90
2022-11-25T01:06:56.736Z,42.22
2022-11-25T01:09:25.010Z,43.88
2022-11-25T01:11:53.741Z,43.80
2022-11-25T01:14:22.664Z,42.25
2022-11-25T01:16:52.408Z,45.50
2022-11-25T01:19:21.273Z,35.13
2022-11-25T01:21:50.572Z,39.08
2022-11-25T01:24:18.828Z,36.72
2022-11-25T01:26:47.118Z,41.83
2022-11-25T01:29:18.244Z,56.45
2022-11-25T01:31:48.173Z,40.38
2022-11-25T01:34:19.184Z,53.38
2022-11-25T01:36:47.228Z,46.38
2022-11-25T01:39:19.449Z,46.13
2022-11-25T01:41:48.563Z,49.00
2022-11-25T01:44:18.497Z,41.08
2022-11-25T01:46:54.419Z,43.58
2022-11-25T01:49:30.130Z,49.17
2022-11-25T01:52:02.575Z,46.22
2022-11-25T01:54:36.970Z,58.75
2022-11-25T01:57:09.583Z,46.25
2022-11-25T01:59:46.262Z,47.75
2022-11-25T02:02:15.757Z,50.63
2022-11-25T02:04:45.739Z,47.22
2022-11-25T02:07:20.480Z,43.10
2022-11-25T02:09:51.069Z,41.00
2022-11-25T02:12:20.933Z,46.10
2022-11-25T02:14:51.660Z,36.25
2022-11-25T02:17:20.341Z,48.67
2022-11-25T02:19:59.761Z,48.22
2022-11-25T02:22:38.695Z,47.83
2022-11-25T02:25:14.512Z,42.05
2022-11-25T02:27:45.535Z,46.22
2022-11-25T02:30:14.042Z,41.40
2022-11-25T02:32:45.001Z,62.35
2022-11-25T02:35:27.718Z,47.30
2022-11-25T02:37:59.947Z,53.03
2022-11-25T02:40:52.160Z,42.58
2022-11-25T02:43:21.287Z,58.42
2022-11-25T02:45:56.649Z,53.25
2022-11-25T02:48:45.806Z,53.88
2022-11-25T02:51:16.747Z,48.50
2022-11-25T02:53:44.877Z,53.20
2022-11-25T02:56:15.307Z,51.78
2022-11-25T02:58:43.789Z,50.67
2022-11-25T03:01:12.592Z,53.20
2022-11-25T03:03:40.649Z,49.70
2022-11-25T03:06:08.974Z,51.85
2022-11-25T03:08:38.106Z,40.83
2022-11-25T03:11:09.351Z,41.53
2022-11-25T03:13:38.740Z,41.80
2022-11-25T03:16:07.498Z,50.63
2022-11-25T03:18:35.786Z,48.78
2022-11-25T03:21:03.878Z,51.70
2022-11-25T03:23:31.898Z,54.00
2022-11-25T03:25:59.841Z,53.83
2022-11-25T03:28:27.812Z,45.78
2022-11-25T03:30:57.180Z,47.88
2022-11-25T03:33:26.195Z,45.72
2022-11-25T03:35:55.356Z,49.78
2022-11-25T03:38:25.041Z,52.28
2022-11-25T03:40:53.081Z,57.97
2022-11-25T03:43:22.077Z,45.88
2022-11-25T03:45:50.877Z,46.55
2022-11-25T03:48:20.325Z,48.13
2022-11-25T03:50:49.478Z,48.10
2022-11-25T03:53:17.462Z,48.40
2022-11-25T03:55:48.158Z,41.45
2022-11-25T03:58:17.990Z,46.88
2022-11-25T04:00:45.975Z,48.03
2022-11-25T04:03:13.954Z,55.35
2022-11-25T04:05:43.252Z,53.00
2022-11-25T04:08:11.295Z,46.28
2022-11-25T04:10:43.137Z,48.35
2022-11-25T04:13:11.519Z,48.55
2022-11-25T04:15:46.876Z,50.10
2022-11-25T04:18:17.714Z,39.97
2022-11-25T04:20:47.460Z,51.50
2022-11-25T04:23:15.724Z,51.28
2022-11-25T04:25:54.953Z,38.65
2022-11-25T04:28:32.219Z,48.30
2022-11-25T04:31:00.338Z,52.20
2022-11-25T04:33:29.056Z,42.92
2022-11-25T04:35:58.372Z,38.90
2022-11-25T04:38:29.476Z,55.38
2022-11-25T04:40:59.690Z,52.08
2022-11-25T04:43:29.001Z,50.55
2022-11-25T04:46:18.435Z,32.38
2022-11-25T04:48:52.069Z,47.40
2022-11-25T04:51:22.643Z,44.33
2022-11-25T04:53:54.655Z,57.72
2022-11-25T04:56:24.706Z,43.17
2022-11-25T04:59:11.912Z,49.28
2022-11-25T05:01:46.949Z,42.97
2022-11-25T05:04:28.314Z,47.58
2022-11-25T05:06:57.662Z,45.05
2022-11-25T05:09:26.707Z,40.20
2022-11-25T05:12:07.253Z,42.75
2022-11-25T05:14:36.426Z,33.25
2022-11-25T05:17:05.302Z,54.63
2022-11-25T05:19:36.305Z,39.58
2022-11-25T05:22:11.795Z,40.58
2022-11-25T05:24:39.980Z,44.38
2022-11-25T05:27:08.414Z,43.15
2022-11-25T05:29:36.692Z,39.42
2022-11-25T05:32:08.464Z,32.45
2022-11-25T05:34:38.532Z,49.35
2022-11-25T05:37:10.802Z,40.17
2022-11-25T05:39:40.713Z,41.60
2022-11-25T05:42:32.906Z,47.35
2022-11-25T05:45:04.287Z,51.40
2022-11-25T05:47:33.528Z,43.65
2022-11-25T05:50:01.647Z,48.78
2022-11-25T05:52:32.977Z,42.25
2022-11-25T05:55:02.677Z,45.80
2022-11-25T05:57:30.825Z,45.92
2022-11-25T06:00:05.633Z,49.45
2022-11-25T06:02:53.110Z,48.72
2022-11-25T06:05:22.600Z,63.70
2022-11-25T06:07:53.872Z,67.47
2022-11-25T06:10:23.441Z,52.75
2022-11-25T06:12:54.250Z,41.83
2022-11-25T06:15:22.226Z,35.83
2022-11-25T06:17:52.933Z,45.40
2022-11-25T06:20:27.581Z,40.92
2022-11-25T06:23:00.369Z,42.05
2022-11-25T06:25:34.728Z,35.50
2022-11-25T06:28:12.804Z,39.95
2022-11-25T06:30:44.580Z,44.28
2022-11-25T06:33:25.270Z,53.50
2022-11-25T06:35:53.492Z,47.55
2022-11-25T06:38:22.875Z,39.85
2022-11-25T06:40:50.853Z,31.42
2022-11-25T06:43:18.850Z,28.65
2022-11-25T06:45:46.977Z,31.15
2022-11-25T06:48:15.337Z,26.10
2022-11-25T06:50:43.314Z,24.98
2022-11-25T06:53:11.309Z,25.65
2022-11-25T06:55:40.673Z,22.33
2022-11-25T06:58:34.395Z,33.38
2022-11-25T07:01:01.981Z,25.83
2022-11-25T07:03:30.129Z,25.95
2022-11-25T07:05:58.783Z,26.17
2022-11-25T07:08:32.426Z,22.48
2022-11-25T07:11:06.208Z,19.05
2022-11-25T07:13:34.659Z,36.95
2022-11-25T07:16:03.930Z,42.10
2022-11-25T07:18:35.332Z,33.90
2022-11-25T07:21:05.291Z,27.52
2022-11-25T07:23:33.498Z,30.88
2022-11-25T07:26:08.902Z,37.90
2022-11-25T07:28:37.743Z,29.00
2022-11-25T07:31:25.096Z,34.83
2022-11-25T07:33:56.807Z,28.30
2022-11-25T07:36:25.038Z,31.85
2022-11-25T07:38:53.345Z,19.13
2022-11-25T07:41:26.110Z,24.77
2022-11-25T07:43:55.780Z,31.35
2022-11-25T07:46:27.677Z,31.85
2022-11-25T07:48:57.620Z,34.58
2022-11-25T07:51:27.403Z,34.88
2022-11-25T07:53:56.955Z,32.83
2022-11-25T07:56:26.465Z,37.53
2022-11-25T07:58:55.078Z,35.00
2022-11-25T08:01:23.063Z,33.90
2022-11-25T08:03:52.297Z,31.27
2022-11-25T08:06:22.057Z,31.83
2022-11-25T08:08:55.322Z,42.35
2022-11-25T08:11:26.780Z,35.35
2022-11-25T08:13:55.084Z,32.63
2022-11-25T08:16:27.708Z,34.50
2022-11-25T08:18:56.056Z,38.22
2022-11-25T08:21:26.218Z,32.58
2022-11-25T08:23:55.269Z,37.88
2022-11-25T08:26:30.117Z,36.05
2022-11-25T08:28:58.762Z,29.58
2022-11-25T08:31:28.702Z,35.42
2022-11-25T08:33:59.716Z,39.08
2022-11-25T08:36:28.972Z,34.33
2022-11-25T08:38:59.271Z,33.65
2022-11-25T08:41:30.555Z,30.38
2022-11-25T08:43:59.186Z,29.20
2022-11-25T08:46:29.174Z,32.95
2022-11-25T08:48:57.894Z,31.25
2022-11-25T08:51:28.103Z,30.80
2022-11-25T08:53:56.291Z,30.95
2022-11-25T08:56:29.525Z,34.83
2022-11-25T08:59:00.028Z,33.45
2022-11-25T09:01:28.598Z,37.28
2022-11-25T09:03:58.122Z,34.78
2022-11-25T09:06:28.012Z,37.35
2022-11-25T09:08:57.615Z,37.60
2022-11-25T09:11:26.667Z,37.13
2022-11-25T09:13:54.879Z,42.35
2022-11-25T09:16:26.596Z,40.70
2022-11-25T09:18:56.246Z,36.92
2022-11-25T09:21:25.616Z,44.83
2022-11-25T09:23:54.992Z,46.10
2022-11-25T09:26:25.962Z,44.67
2022-11-25T09:28:54.562Z,50.50
2022-11-25T09:31:24.762Z,63.42
2022-11-25T09:33:52.842Z,51.78
2022-11-25T09:36:23.553Z,51.25
2022-11-25T09:38:52.138Z,46.72
2022-11-25T09:41:57.246Z,50.88
2022-11-25T09:45:01.477Z,56.97
2022-11-25T09:47:45.238Z,55.00
2022-11-25T09:50:21.269Z,46.90
2022-11-25T09:52:56.354Z,53.20
2022-11-25T09:55:26.666Z,52.17
2022-11-25T09:58:04.544Z,51.78
2022-11-25T10:00:38.965Z,54.53
2022-11-25T10:03:19.343Z,61.63
2022-11-25T10:05:55.189Z,53.88
2022-11-25T10:08:27.232Z,55.95
2022-11-25T10:11:00.873Z,59.40
2022-11-25T10:13:33.687Z,58.10
2022-11-25T10:16:05.734Z,60.03
2022-11-25T10:18:40.625Z,54.85
2022-11-25T10:21:12.283Z,68.15
2022-11-25T10:23:40.965Z,72.15
2022-11-25T10:26:15.281Z,65.00
2022-11-25T10:28:52.877Z,60.08
2022-11-25T10:31:23.864Z,62.17
2022-11-25T10:33:57.237Z,64.05
2022-11-25T10:36:31.834Z,66.10
2022-11-25T10:39:03.915Z,53.83
2022-11-25T10:41:35.871Z,60.47
2022-11-25T10:44:04.900Z,54.40
2022-11-25T10:47:11.790Z,59.65
2022-11-25T10:49:39.940Z,59.58
2022-11-25T10:52:12.228Z,60.35
2022-11-25T10:54:41.047Z,52.70
2022-11-25T10:57:19.362Z,65.28
2022-11-25T10:59:58.175Z,62.70
2022-11-25T11:02:28.658Z,67.05
2022-11-25T11:05:01.009Z,56.45
2022-11-25T11:07:32.985Z,58.47
2022-11-25T11:10:22.271Z,58.83
2022-11-25T11:12:58.485Z,54.38
2022-11-25T11:15:31.365Z,55.88
2022-11-25T11:18:01.050Z,59.58
2022-11-25T11:20:32.599Z,49.90
2022-11-25T11:23:09.073Z,56.17
2022-11-25T11:25:40.652Z,48.38
2022-11-25T11:28:28.004Z,48.53
2022-11-25T11:30:59.465Z,51.75
2022-11-25T11:33:34.124Z,56.22
2022-11-25T11:36:24.681Z,52.95
2022-11-25T11:38:55.801Z,47.03
2022-11-25T11:41:37.685Z,54.03
2022-11-25T11:44:21.530Z,43.63
2022-11-25T11:47:11.570Z,45.85
2022-11-25T11:49:56.636Z,59.42
2022-11-25T11:52:37.884Z,48.63
2022-11-25T11:55:21.277Z,42.53
2022-11-25T11:58:01.849Z,45.83
2022-11-25T12:00:33.309Z,42.05
2022-11-25T12:03:12.343Z,36.63
2022-11-25T12:05:40.981Z,44.05
2022-11-25T12:08:18.035Z,48.35
2022-11-25T12:10:52.099Z,40.47
2022-11-25T12:13:24.161Z,32.50
2022-11-25T12:15:56.856Z,37.55
2022-11-25T12:18:45.556Z,47.38
2022-11-25T12:21:25.030Z,42.58
2022-11-25T12:23:59.704Z,36.00
2022-11-25T12:26:34.193Z,31.85
2022-11-25T12:29:08.853Z,24.90
2022-11-25T12:31:40.704Z,37.10
2022-11-25T12:34:16.268Z,39.53
2022-11-25T12:36:47.481Z,36.67
2022-11-25T12:39:27.872Z,35.00
2022-11-25T12:42:00.445Z,37.55
2022-11-25T12:44:32.313Z,44.00
2022-11-25T12:47:00.552Z,40.50
2022-11-25T12:49:30.426Z,33.60
2022-11-25T12:52:23.064Z,39.20
2022-11-25T12:55:06.304Z,43.53
2022-11-25T12:58:15.754Z,43.22
2022-11-25T13:01:08.848Z,43.05
2022-11-25T13:04:01.839Z,42.22
2022-11-25T13:06:44.648Z,41.95
2022-11-25T13:09:28.984Z,41.97
2022-11-25T13:12:11.743Z,44.58
2022-11-25T13:15:04.410Z,40.67
2022-11-25T13:17:37.361Z,34.15
2022-11-25T13:20:32.941Z,41.58
2022-11-25T13:23:07.696Z,41.83
2022-11-25T13:25:39.844Z,31.77
2022-11-25T13:28:30.189Z,40.35
2022-11-25T13:31:19.320Z,40.03
2022-11-25T13:34:03.812Z,35.47
2022-11-25T13:36:49.586Z,36.22
2022-11-25T13:39:19.604Z,41.92
2022-11-25T13:41:59.736Z,38.85
2022-11-25T13:44:32.545Z,39.60
2022-11-25T13:47:21.866Z,46.72
2022-11-25T13:49:53.650Z,41.08
2022-11-25T13:52:43.544Z,44.78
2022-11-25T13:55:26.461Z,68.18
2022-11-25T13:58:17.735Z,67.13
2022-11-25T14:01:26.324Z,64.50
2022-11-25T14:04:00.226Z,33.22
2022-11-25T14:07:02.660Z,33.17
2022-11-25T14:09:56.536Z,38.53
2022-11-25T14:12:50.500Z,39.25
2022-11-25T14:15:55.178Z,45.38
2022-11-25T14:19:21.781Z,57.88
2022-11-25T14:21:58.250Z,53.80
2022-11-25T14:24:39.200Z,34.55
2022-11-25T14:27:15.623Z,31.15
2022-11-25T14:29:47.941Z,27.90
2022-11-25T14:32:21.825Z,27.63
2022-11-25T14:34:57.544Z,30.17
2022-11-25T14:37:34.149Z,32.28
2022-11-25T14:40:10.780Z,31.42
2022-11-25T14:42:42.243Z,32.38
2022-11-25T14:45:22.403Z,32.03
2022-11-25T14:47:50.617Z,31.98
2022-11-25T14:50:34.860Z,35.35
2022-11-25T14:53:07.708Z,34.58
2022-11-25T14:55:36.869Z,30.77
2022-11-25T14:58:05.178Z,31.17
2022-11-25T15:00:33.735Z,34.70
2022-11-25T15:03:06.442Z,29.90
2022-11-25T15:05:38.053Z,38.22
2022-11-25T15:08:14.190Z,36.80
2022-11-25T15:10:48.080Z,31.33
2022-11-25T15:13:28.079Z,31.67
2022-11-25T15:15:59.223Z,23.85
2022-11-25T15:18:27.255Z,23.85
2022-11-25T15:21:00.286Z,26.25
2022-11-25T15:23:31.901Z,28.40
2022-11-25T15:26:01.070Z,25.63
2022-11-25T15:28:38.253Z,27.60
2022-11-25T15:31:12.559Z,26.80
2022-11-25T15:33:42.339Z,33.45
2022-11-25T15:36:11.872Z,29.58
2022-11-25T15:38:43.005Z,32.20
2022-11-25T15:41:22.048Z,29.75
2022-11-25T15:43:54.001Z,37.00
2022-11-25T15:46:23.128Z,31.20
2022-11-25T15:48:53.440Z,40.55
2022-11-25T15:51:31.997Z,38.55
2022-11-25T15:54:04.005Z,40.10
2022-11-25T15:56:38.534Z,33.47
2022-11-25T15:59:06.775Z,34.10
2022-11-25T16:01:35.287Z,37.42
2022-11-25T16:04:20.570Z,38.47
2022-11-25T16:06:59.394Z,39.08
2022-11-25T16:09:31.211Z,30.85
2022-11-25T16:12:07.118Z,38.97
2022-11-25T16:14:36.722Z,41.13
2022-11-25T16:17:09.467Z,52.63
2022-11-25T16:19:45.644Z,42.78
2022-11-25T16:22:17.810Z,42.80
2022-11-25T16:24:51.077Z,38.08
2022-11-25T16:27:22.417Z,42.72
2022-11-25T16:29:56.091Z,45.60
2022-11-25T16:32:28.315Z,35.67
2022-11-25T16:34:57.472Z,31.25
2022-11-25T16:37:26.817Z,34.42
2022-11-25T16:39:54.779Z,34.38
2022-11-25T16:42:23.457Z,34.00
2022-11-25T16:44:53.253Z,32.10
2022-11-25T16:47:22.877Z,40.45
2022-11-25T16:49:51.062Z,38.63
2022-11-25T16:52:19.002Z,68.45
2022-11-25T16:54:48.319Z,42.80
2022-11-25T16:57:19.950Z,31.23
2022-11-25T16:59:54.347Z,27.90
2022-11-25T17:02:24.139Z,26.65
2022-11-25T17:04:52.231Z,26.25
2022-11-25T17:07:36.260Z,29.90
2022-11-25T17:10:07.031Z,40.55
2022-11-25T17:12:37.918Z,33.38
2022-11-25T17:15:08.918Z,36.03
2022-11-25T17:17:37.010Z,37.40
2022-11-25T17:20:05.908Z,33.92
2022-11-25T17:22:39.023Z,36.10
2022-11-25T17:25:10.809Z,30.45
2022-11-25T17:27:39.285Z,31.33
2022-11-25T17:30:13.928Z,35.05
2022-11-25T17:32:42.011Z,35.28
2022-11-25T17:35:20.698Z,28.27
2022-11-25T17:37:49.010Z,32.47
2022-11-25T17:40:18.824Z,91.18
2022-11-25T17:42:49.896Z,67.00
2022-11-25T17:45:21.114Z,45.47
2022-11-25T17:47:50.307Z,32.70
2022-11-25T17:50:21.511Z,38.13
2022-11-25T17:52:49.823Z,48.30
2022-11-25T17:55:19.801Z,55.70
2022-11-25T17:57:50.508Z,57.60
2022-11-25T18:00:21.910Z,51.40
2022-11-25T18:02:50.533Z,54.08
2022-11-25T18:05:21.396Z,53.28
2022-11-25T18:07:50.241Z,56.10
2022-11-25T18:10:22.551Z,60.08
2022-11-25T18:12:52.786Z,51.45
2022-11-25T18:15:23.072Z,53.05
2022-11-25T18:17:54.113Z,51.17
2022-11-25T18:20:25.420Z,50.75
2022-11-25T18:22:54.231Z,56.00
2022-11-25T18:25:25.336Z,54.28
2022-11-25T18:27:56.270Z,49.25
2022-11-25T18:30:26.531Z,45.83
2022-11-25T18:32:56.113Z,47.17
2022-11-25T18:35:31.058Z,45.10
2022-11-25T18:38:02.230Z,50.30
2022-11-25T18:40:31.907Z,45.08
2022-11-25T18:43:02.715Z,38.67
2022-11-25T18:45:34.876Z,42.97
2022-11-25T18:48:03.369Z,41.22
2022-11-25T18:50:32.906Z,34.83
2022-11-25T18:53:00.891Z,36.10
2022-11-25T18:55:29.042Z,40.65
2022-11-25T18:57:58.485Z,31.65
2022-11-25T19:00:33.006Z,37.70
2022-11-25T19:03:01.901Z,42.25
2022-11-25T19:05:34.439Z,32.53
2022-11-25T19:08:02.413Z,39.05
2022-11-25T19:10:34.923Z,31.77
2022-11-25T19:13:08.008Z,33.22
2022-11-25T19:15:37.394Z,34.75
2022-11-25T19:18:07.507Z,30.48
2022-11-25T19:20:35.440Z,32.92
2022-11-25T19:23:14.419Z,47.28
2022-11-25T19:25:42.403Z,42.17
2022-11-25T19:28:14.536Z,32.78
2022-11-25T19:30:43.231Z,40.78
2022-11-25T19:33:19.295Z,38.55
2022-11-25T19:35:47.501Z,35.15
2022-11-25T19:38:20.458Z,29.75
2022-11-25T19:40:48.683Z,37.40
2022-11-25T19:43:17.983Z,42.70
2022-11-25T19:45:46.387Z,31.67
2022-11-25T19:48:16.254Z,32.63
2022-11-25T19:50:45.727Z,41.03
2022-11-25T19:53:17.527Z,41.72
2022-11-25T19:55:45.951Z,47.20
2022-11-25T19:58:14.801Z,41.28
2022-11-25T20:00:46.108Z,42.50
2022-11-25T20:03:20.823Z,46.08
2022-11-25T20:05:49.925Z,42.67
2022-11-25T20:08:19.952Z,36.22
2022-11-25T20:10:48.166Z,28.10
2022-11-25T20:13:16.235Z,31.45
2022-11-25T20:15:46.685Z,34.80
2022-11-25T20:18:18.574Z,39.25
2022-11-25T20:20:49.946Z,30.65
2022-11-25T20:23:28.052Z,32.40
2022-11-25T20:25:56.427Z,31.13
2022-11-25T20:28:27.159Z,31.27
2022-11-25T20:30:58.941Z,25.65
2022-11-25T20:33:27.548Z,27.23
2022-11-25T20:36:04.558Z,22.23
2022-11-25T20:38:34.918Z,21.90
2022-11-25T20:41:04.204Z,27.83
2022-11-25T20:43:34.488Z,23.23
2022-11-25T20:46:04.493Z,22.88
2022-11-25T20:48:34.821Z,18.35
2022-11-25T20:51:04.547Z,25.48
2022-11-25T20:53:32.570Z,24.75
2022-11-25T20:56:00.940Z,19.08
2022-11-25T20:58:31.737Z,21.67
2022-11-25T21:01:00.412Z,19.75
2022-11-25T21:03:29.887Z,18.98
2022-11-25T21:05:58.116Z,19.95
2022-11-25T21:08:30.014Z,24.80
2022-11-25T21:11:00.870Z,28.85
2022-11-25T21:13:31.178Z,27.63
2022-11-25T21:15:59.200Z,28.55
2022-11-25T21:18:27.485Z,20.75
2022-11-25T21:20:58.407Z,18.25
2022-11-25T21:23:30.055Z,64.00
2022-11-25T21:26:04.817Z,25.05
2022-11-25T21:28:33.388Z,57.17
2022-11-25T21:31:08.479Z,39.05
2022-11-25T21:33:39.104Z,27.73
2022-11-25T21:36:15.828Z,28.58
2022-11-25T21:38:44.398Z,28.77
2022-11-25T21:41:12.968Z,28.23
2022-11-25T21:43:43.227Z,34.35
2022-11-25T21:46:15.555Z,48.72
2022-11-25T21:48:43.984Z,41.20
2022-11-25T21:51:21.571Z,44.80
2022-11-25T21:53:50.795Z,40.65
2022-11-25T21:56:28.047Z,33.30
2022-11-25T21:58:56.535Z,26.38
2022-11-25T22:01:25.152Z,34.78
2022-11-25T22:03:53.183Z,34.58
2022-11-25T22:06:26.358Z,30.77
2022-11-25T22:08:54.915Z,33.63
2022-11-25T22:11:30.165Z,43.78
2022-11-25T22:13:58.743Z,35.22
2022-11-25T22:16:30.302Z,36.40
2022-11-25T22:18:59.249Z,30.17
2022-11-25T22:21:28.580Z,31.25
2022-11-25T22:23:56.614Z,27.10
2022-11-25T22:26:30.025Z,33.85
2022-11-25T22:28:59.823Z,24.38
2022-11-25T22:31:29.034Z,25.42
2022-11-25T22:33:57.543Z,28.52
2022-11-25T22:36:35.818Z,23.63
2022-11-25T22:39:14.718Z,30.08
2022-11-25T22:41:44.726Z,24.27
2022-11-25T22:44:19.574Z,29.10
2022-11-25T22:46:48.303Z,23.50
2022-11-25T22:49:29.058Z,26.45
2022-11-25T22:51:59.186Z,26.20
2022-11-25T22:54:27.157Z,25.17
2022-11-25T22:56:55.920Z,26.83
2022-11-25T22:59:23.855Z,31.02
2022-11-25T23:01:52.318Z,35.45
2022-11-25T23:04:21.386Z,33.72
2022-11-25T23:06:49.726Z,33.17
2022-11-25T23:09:20.331Z,26.85
2022-11-25T23:11:48.926Z,29.25
2022-11-25T23:14:16.943Z,30.90
2022-11-25T23:16:45.031Z,33.65
2022-11-25T23:19:15.841Z,33.92
2022-11-25T23:21:45.657Z,28.25
2022-11-25T23:24:15.037Z,26.23
2022-11-25T23:26:44.878Z,27.85
2022-11-25T23:29:12.838Z,23.38
2022-11-25T23:31:41.202Z,25.60
2022-11-25T23:34:13.296Z,27.15
2022-11-25T23:36:45.629Z,26.88
2022-11-25T23:39:19.958Z,26.13
2022-11-25T23:41:51.214Z,30.95
2022-11-25T23:44:23.817Z,26.83
2022-11-25T23:46:52.677Z,18.48
2022-11-25T23:49:24.858Z,22.08
2022-11-25T23:51:55.797Z,25.73
2022-11-25T23:54:29.574Z,24.02
2022-11-25T23:56:59.056Z,27.23
2022-11-25T23:59:30.749Z,24.10
